sensor_id;sensor_type;location;lat;lon;timestamp;P1;durP1;ratioP1;P2;durP2;ratioP2
23290;SDS011;11814;44.686;10.842;2023-06-26T00:00:23;9.27;;;7.38;;
23290;SDS011;11814;44.686;10.842;2023-06-26T00:02:49;10.23;;;7.45;;
23290;SDS011;11814;44.686;10.842;2023-06-26T00:05:15;12.75;;;8.57;;
23290;SDS011;11814;44.686;10.842;2023-06-26T00:07:41;9.88;;;8.18;;
23290;SDS011;11814;44.686;10.842;2023-06-26T00:10:15;10.93;;;8.30;;
23290;SDS011;11814;44.686;10.842;2023-06-26T00:12:41;9.82;;;8.40;;
23290;SDS011;11814;44.686;10.842;2023-06-26T00:15:06;9.88;;;8.02;;
23290;SDS011;11814;44.686;10.842;2023-06-26T00:17:33;10.00;;;8.15;;
23290;SDS011;11814;44.686;10.842;2023-06-26T00:20:02;11.02;;;8.70;;
23290;SDS011;11814;44.686;10.842;2023-06-26T00:22:28;12.98;;;8.70;;
23290;SDS011;11814;44.686;10.842;2023-06-26T00:24:54;11.68;;;9.80;;
23290;SDS011;11814;44.686;10.842;2023-06-26T00:27:20;11.43;;;8.50;;
23290;SDS011;11814;44.686;10.842;2023-06-26T00:29:45;11.60;;;8.52;;
23290;SDS011;11814;44.686;10.842;2023-06-26T00:32:11;12.63;;;9.20;;
23290;SDS011;11814;44.686;10.842;2023-06-26T00:34:36;12.00;;;8.57;;
23290;SDS011;11814;44.686;10.842;2023-06-26T00:37:02;13.55;;;9.98;;
23290;SDS011;11814;44.686;10.842;2023-06-26T00:39:29;13.85;;;9.88;;
23290;SDS011;11814;44.686;10.842;2023-06-26T00:41:54;15.27;;;9.77;;
23290;SDS011;11814;44.686;10.842;2023-06-26T00:44:20;13.23;;;9.95;;
23290;SDS011;11814;44.686;10.842;2023-06-26T00:46:46;15.40;;;9.95;;
23290;SDS011;11814;44.686;10.842;2023-06-26T00:49:12;13.57;;;9.57;;
23290;SDS011;11814;44.686;10.842;2023-06-26T00:51:38;15.95;;;10.10;;
23290;SDS011;11814;44.686;10.842;2023-06-26T00:54:03;11.60;;;9.23;;
23290;SDS011;11814;44.686;10.842;2023-06-26T00:56:30;12.13;;;8.70;;
23290;SDS011;11814;44.686;10.842;2023-06-26T00:58:57;11.10;;;8.27;;
23290;SDS011;11814;44.686;10.842;2023-06-26T01:01:23;10.38;;;7.88;;
23290;SDS011;11814;44.686;10.842;2023-06-26T01:03:51;14.75;;;7.85;;
23290;SDS011;11814;44.686;10.842;2023-06-26T01:06:18;10.57;;;7.75;;
23290;SDS011;11814;44.686;10.842;2023-06-26T01:08:47;11.88;;;7.72;;
23290;SDS011;11814;44.686;10.842;2023-06-26T01:11:13;9.43;;;7.65;;
23290;SDS011;11814;44.686;10.842;2023-06-26T01:13:40;10.05;;;7.40;;
23290;SDS011;11814;44.686;10.842;2023-06-26T01:16:07;11.82;;;6.50;;
23290;SDS011;11814;44.686;10.842;2023-06-26T01:18:34;12.27;;;7.50;;
23290;SDS011;11814;44.686;10.842;2023-06-26T01:21:06;10.65;;;6.85;;
23290;SDS011;11814;44.686;10.842;2023-06-26T01:23:42;10.27;;;7.70;;
23290;SDS011;11814;44.686;10.842;2023-06-26T01:26:26;11.65;;;7.97;;
23290;SDS011;11814;44.686;10.842;2023-06-26T01:28:54;10.93;;;8.20;;
23290;SDS011;11814;44.686;10.842;2023-06-26T01:31:23;11.02;;;8.70;;
23290;SDS011;11814;44.686;10.842;2023-06-26T01:33:50;9.98;;;7.90;;
23290;SDS011;11814;44.686;10.842;2023-06-26T01:36:16;10.90;;;8.80;;
23290;SDS011;11814;44.686;10.842;2023-06-26T01:38:42;9.65;;;8.13;;
23290;SDS011;11814;44.686;10.842;2023-06-26T01:41:08;13.43;;;8.95;;
23290;SDS011;11814;44.686;10.842;2023-06-26T01:46:21;13.07;;;8.32;;
23290;SDS011;11814;44.686;10.842;2023-06-26T01:48:52;12.38;;;8.07;;
23290;SDS011;11814;44.686;10.842;2023-06-26T01:51:47;10.05;;;8.07;;
23290;SDS011;11814;44.686;10.842;2023-06-26T01:54:22;13.10;;;8.40;;
23290;SDS011;11814;44.686;10.842;2023-06-26T01:56:51;9.23;;;8.10;;
23290;SDS011;11814;44.686;10.842;2023-06-26T01:59:18;12.55;;;9.07;;
23290;SDS011;11814;44.686;10.842;2023-06-26T02:01:46;11.85;;;9.70;;
23290;SDS011;11814;44.686;10.842;2023-06-26T02:04:12;12.30;;;9.75;;
23290;SDS011;11814;44.686;10.842;2023-06-26T02:06:38;10.57;;;8.88;;
23290;SDS011;11814;44.686;10.842;2023-06-26T02:09:03;10.48;;;9.25;;
23290;SDS011;11814;44.686;10.842;2023-06-26T02:11:29;15.48;;;9.82;;
23290;SDS011;11814;44.686;10.842;2023-06-26T02:13:55;12.23;;;10.63;;
23290;SDS011;11814;44.686;10.842;2023-06-26T02:16:20;13.25;;;9.82;;
23290;SDS011;11814;44.686;10.842;2023-06-26T02:18:46;10.90;;;9.23;;
23290;SDS011;11814;44.686;10.842;2023-06-26T02:21:12;12.93;;;9.43;;
23290;SDS011;11814;44.686;10.842;2023-06-26T02:23:38;12.02;;;9.75;;
23290;SDS011;11814;44.686;10.842;2023-06-26T02:26:04;11.20;;;9.30;;
23290;SDS011;11814;44.686;10.842;2023-06-26T02:28:29;11.82;;;9.27;;
23290;SDS011;11814;44.686;10.842;2023-06-26T02:30:56;11.68;;;9.88;;
23290;SDS011;11814;44.686;10.842;2023-06-26T02:33:22;10.65;;;9.32;;
23290;SDS011;11814;44.686;10.842;2023-06-26T02:35:47;11.85;;;9.30;;
23290;SDS011;11814;44.686;10.842;2023-06-26T02:38:15;11.68;;;9.63;;
23290;SDS011;11814;44.686;10.842;2023-06-26T02:40:40;13.57;;;10.18;;
23290;SDS011;11814;44.686;10.842;2023-06-26T02:43:06;14.27;;;10.55;;
23290;SDS011;11814;44.686;10.842;2023-06-26T02:45:32;13.68;;;9.15;;
23290;SDS011;11814;44.686;10.842;2023-06-26T02:47:57;10.75;;;9.30;;
23290;SDS011;11814;44.686;10.842;2023-06-26T02:50:23;12.93;;;9.57;;
23290;SDS011;11814;44.686;10.842;2023-06-26T02:52:49;12.60;;;9.55;;
23290;SDS011;11814;44.686;10.842;2023-06-26T02:55:17;11.50;;;8.85;;
23290;SDS011;11814;44.686;10.842;2023-06-26T02:57:44;11.73;;;8.40;;
23290;SDS011;11814;44.686;10.842;2023-06-26T03:00:10;11.77;;;8.88;;
23290;SDS011;11814;44.686;10.842;2023-06-26T03:02:36;11.93;;;9.90;;
23290;SDS011;11814;44.686;10.842;2023-06-26T03:05:02;12.90;;;9.48;;
23290;SDS011;11814;44.686;10.842;2023-06-26T03:07:29;10.38;;;9.13;;
23290;SDS011;11814;44.686;10.842;2023-06-26T03:09:54;11.32;;;10.05;;
23290;SDS011;11814;44.686;10.842;2023-06-26T03:12:20;12.05;;;9.63;;
23290;SDS011;11814;44.686;10.842;2023-06-26T03:14:46;11.88;;;9.70;;
23290;SDS011;11814;44.686;10.842;2023-06-26T03:17:11;11.82;;;9.90;;
23290;SDS011;11814;44.686;10.842;2023-06-26T03:19:37;12.00;;;9.65;;
23290;SDS011;11814;44.686;10.842;2023-06-26T03:22:03;11.15;;;9.02;;
23290;SDS011;11814;44.686;10.842;2023-06-26T03:24:28;16.13;;;10.43;;
23290;SDS011;11814;44.686;10.842;2023-06-26T03:26:54;12.80;;;10.07;;
23290;SDS011;11814;44.686;10.842;2023-06-26T03:29:20;11.98;;;10.10;;
23290;SDS011;11814;44.686;10.842;2023-06-26T03:31:45;13.43;;;10.52;;
23290;SDS011;11814;44.686;10.842;2023-06-26T03:34:11;11.73;;;9.98;;
23290;SDS011;11814;44.686;10.842;2023-06-26T03:36:37;12.43;;;10.07;;
23290;SDS011;11814;44.686;10.842;2023-06-26T03:39:03;15.02;;;9.80;;
23290;SDS011;11814;44.686;10.842;2023-06-26T03:41:30;13.00;;;9.30;;
23290;SDS011;11814;44.686;10.842;2023-06-26T03:43:56;11.38;;;9.18;;
23290;SDS011;11814;44.686;10.842;2023-06-26T03:46:21;16.45;;;9.40;;
23290;SDS011;11814;44.686;10.842;2023-06-26T03:48:47;11.65;;;9.15;;
23290;SDS011;11814;44.686;10.842;2023-06-26T03:51:13;11.00;;;9.85;;
23290;SDS011;11814;44.686;10.842;2023-06-26T03:53:39;11.68;;;9.70;;
23290;SDS011;11814;44.686;10.842;2023-06-26T03:56:04;15.50;;;10.70;;
23290;SDS011;11814;44.686;10.842;2023-06-26T03:58:30;12.98;;;10.18;;
23290;SDS011;11814;44.686;10.842;2023-06-26T04:00:56;13.55;;;10.38;;
23290;SDS011;11814;44.686;10.842;2023-06-26T04:03:23;12.68;;;10.05;;
23290;SDS011;11814;44.686;10.842;2023-06-26T04:05:48;15.18;;;10.60;;
23290;SDS011;11814;44.686;10.842;2023-06-26T04:08:14;14.73;;;10.23;;
23290;SDS011;11814;44.686;10.842;2023-06-26T04:10:40;14.10;;;10.20;;
23290;SDS011;11814;44.686;10.842;2023-06-26T04:13:05;11.90;;;9.93;;
23290;SDS011;11814;44.686;10.842;2023-06-26T04:15:31;14.43;;;10.60;;
23290;SDS011;11814;44.686;10.842;2023-06-26T04:17:57;12.73;;;10.43;;
23290;SDS011;11814;44.686;10.842;2023-06-26T04:20:22;13.30;;;10.60;;
23290;SDS011;11814;44.686;10.842;2023-06-26T04:22:48;12.35;;;9.13;;
23290;SDS011;11814;44.686;10.842;2023-06-26T04:25:14;12.55;;;9.70;;
23290;SDS011;11814;44.686;10.842;2023-06-26T04:27:39;15.20;;;10.23;;
23290;SDS011;11814;44.686;10.842;2023-06-26T04:30:05;13.13;;;10.35;;
23290;SDS011;11814;44.686;10.842;2023-06-26T04:32:31;12.13;;;10.10;;
23290;SDS011;11814;44.686;10.842;2023-06-26T04:34:57;14.13;;;11.25;;
23290;SDS011;11814;44.686;10.842;2023-06-26T04:37:23;14.45;;;9.75;;
23290;SDS011;11814;44.686;10.842;2023-06-26T04:39:49;14.68;;;10.25;;
23290;SDS011;11814;44.686;10.842;2023-06-26T04:42:15;15.27;;;10.00;;
23290;SDS011;11814;44.686;10.842;2023-06-26T04:44:41;14.98;;;10.48;;
23290;SDS011;11814;44.686;10.842;2023-06-26T04:47:07;12.27;;;10.20;;
23290;SDS011;11814;44.686;10.842;2023-06-26T04:49:33;17.83;;;10.75;;
23290;SDS011;11814;44.686;10.842;2023-06-26T04:51:59;15.77;;;10.27;;
23290;SDS011;11814;44.686;10.842;2023-06-26T04:54:25;14.50;;;10.52;;
23290;SDS011;11814;44.686;10.842;2023-06-26T04:56:51;17.42;;;11.40;;
23290;SDS011;11814;44.686;10.842;2023-06-26T04:59:17;15.00;;;10.70;;
23290;SDS011;11814;44.686;10.842;2023-06-26T05:01:42;17.75;;;11.20;;
23290;SDS011;11814;44.686;10.842;2023-06-26T05:04:13;14.73;;;11.15;;
23290;SDS011;11814;44.686;10.842;2023-06-26T05:06:40;12.82;;;11.50;;
23290;SDS011;11814;44.686;10.842;2023-06-26T05:09:06;12.82;;;10.43;;
23290;SDS011;11814;44.686;10.842;2023-06-26T05:11:32;13.77;;;11.15;;
23290;SDS011;11814;44.686;10.842;2023-06-26T05:13:57;15.80;;;11.23;;
23290;SDS011;11814;44.686;10.842;2023-06-26T05:16:23;16.00;;;11.38;;
23290;SDS011;11814;44.686;10.842;2023-06-26T05:18:49;12.93;;;10.98;;
23290;SDS011;11814;44.686;10.842;2023-06-26T05:21:15;13.88;;;11.10;;
23290;SDS011;11814;44.686;10.842;2023-06-26T05:23:41;14.30;;;10.88;;
23290;SDS011;11814;44.686;10.842;2023-06-26T05:26:09;17.00;;;10.77;;
23290;SDS011;11814;44.686;10.842;2023-06-26T05:28:36;13.15;;;11.00;;
23290;SDS011;11814;44.686;10.842;2023-06-26T05:31:02;13.80;;;11.48;;
23290;SDS011;11814;44.686;10.842;2023-06-26T05:33:30;12.18;;;10.60;;
23290;SDS011;11814;44.686;10.842;2023-06-26T05:35:56;12.57;;;10.65;;
23290;SDS011;11814;44.686;10.842;2023-06-26T05:38:24;14.95;;;11.02;;
23290;SDS011;11814;44.686;10.842;2023-06-26T05:40:50;12.38;;;11.07;;
23290;SDS011;11814;44.686;10.842;2023-06-26T05:43:16;13.30;;;10.82;;
23290;SDS011;11814;44.686;10.842;2023-06-26T05:45:45;13.38;;;10.25;;
23290;SDS011;11814;44.686;10.842;2023-06-26T05:48:12;15.55;;;10.30;;
23290;SDS011;11814;44.686;10.842;2023-06-26T05:50:38;12.35;;;10.10;;
23290;SDS011;11814;44.686;10.842;2023-06-26T05:53:05;16.40;;;9.77;;
23290;SDS011;11814;44.686;10.842;2023-06-26T05:55:31;15.63;;;9.90;;
23290;SDS011;11814;44.686;10.842;2023-06-26T05:57:57;15.00;;;9.75;;
23290;SDS011;11814;44.686;10.842;2023-06-26T06:00:24;16.40;;;10.40;;
23290;SDS011;11814;44.686;10.842;2023-06-26T06:02:51;18.10;;;9.95;;
23290;SDS011;11814;44.686;10.842;2023-06-26T06:05:19;19.48;;;10.65;;
23290;SDS011;11814;44.686;10.842;2023-06-26T06:07:48;15.63;;;9.48;;
23290;SDS011;11814;44.686;10.842;2023-06-26T06:10:14;16.63;;;9.48;;
23290;SDS011;11814;44.686;10.842;2023-06-26T06:12:40;15.68;;;9.55;;
23290;SDS011;11814;44.686;10.842;2023-06-26T06:15:06;11.43;;;7.88;;
23290;SDS011;11814;44.686;10.842;2023-06-26T06:17:32;16.73;;;8.70;;
23290;SDS011;11814;44.686;10.842;2023-06-26T06:19:57;10.35;;;7.72;;
23290;SDS011;11814;44.686;10.842;2023-06-26T06:22:23;16.23;;;8.25;;
23290;SDS011;11814;44.686;10.842;2023-06-26T06:24:49;15.68;;;7.90;;
23290;SDS011;11814;44.686;10.842;2023-06-26T06:27:15;9.13;;;7.53;;
23290;SDS011;11814;44.686;10.842;2023-06-26T06:29:41;12.88;;;7.88;;
23290;SDS011;11814;44.686;10.842;2023-06-26T06:32:07;16.23;;;8.85;;
23290;SDS011;11814;44.686;10.842;2023-06-26T06:34:33;9.77;;;8.07;;
23290;SDS011;11814;44.686;10.842;2023-06-26T06:36:59;12.02;;;8.93;;
23290;SDS011;11814;44.686;10.842;2023-06-26T06:39:24;12.50;;;8.82;;
23290;SDS011;11814;44.686;10.842;2023-06-26T06:41:50;10.65;;;8.65;;
23290;SDS011;11814;44.686;10.842;2023-06-26T06:44:15;11.48;;;9.02;;
23290;SDS011;11814;44.686;10.842;2023-06-26T06:46:41;11.80;;;8.63;;
23290;SDS011;11814;44.686;10.842;2023-06-26T06:49:08;14.43;;;8.38;;
23290;SDS011;11814;44.686;10.842;2023-06-26T06:51:34;15.07;;;8.48;;
23290;SDS011;11814;44.686;10.842;2023-06-26T06:54:00;14.68;;;8.40;;
23290;SDS011;11814;44.686;10.842;2023-06-26T06:56:26;11.88;;;8.30;;
23290;SDS011;11814;44.686;10.842;2023-06-26T06:58:51;10.63;;;8.98;;
23290;SDS011;11814;44.686;10.842;2023-06-26T07:01:17;11.93;;;8.73;;
23290;SDS011;11814;44.686;10.842;2023-06-26T07:03:43;13.38;;;9.13;;
23290;SDS011;11814;44.686;10.842;2023-06-26T07:06:08;11.02;;;8.57;;
23290;SDS011;11814;44.686;10.842;2023-06-26T07:08:34;13.68;;;8.10;;
23290;SDS011;11814;44.686;10.842;2023-06-26T07:11:00;15.20;;;8.98;;
23290;SDS011;11814;44.686;10.842;2023-06-26T07:13:26;11.38;;;8.50;;
23290;SDS011;11814;44.686;10.842;2023-06-26T07:15:52;13.27;;;8.20;;
23290;SDS011;11814;44.686;10.842;2023-06-26T07:18:18;10.23;;;8.05;;
23290;SDS011;11814;44.686;10.842;2023-06-26T07:20:43;8.77;;;7.85;;
23290;SDS011;11814;44.686;10.842;2023-06-26T07:23:09;13.80;;;8.85;;
23290;SDS011;11814;44.686;10.842;2023-06-26T07:25:35;12.35;;;8.10;;
23290;SDS011;11814;44.686;10.842;2023-06-26T07:28:01;10.32;;;8.20;;
23290;SDS011;11814;44.686;10.842;2023-06-26T07:30:27;14.55;;;8.30;;
23290;SDS011;11814;44.686;10.842;2023-06-26T07:32:53;10.38;;;7.63;;
23290;SDS011;11814;44.686;10.842;2023-06-26T07:35:18;13.40;;;8.50;;
23290;SDS011;11814;44.686;10.842;2023-06-26T07:37:44;9.73;;;8.65;;
23290;SDS011;11814;44.686;10.842;2023-06-26T07:40:10;14.27;;;9.15;;
23290;SDS011;11814;44.686;10.842;2023-06-26T07:42:36;12.55;;;8.60;;
23290;SDS011;11814;44.686;10.842;2023-06-26T07:45:02;9.32;;;8.38;;
23290;SDS011;11814;44.686;10.842;2023-06-26T07:47:34;12.30;;;9.02;;
23290;SDS011;11814;44.686;10.842;2023-06-26T07:50:00;11.10;;;9.50;;
23290;SDS011;11814;44.686;10.842;2023-06-26T07:52:26;15.23;;;9.35;;
23290;SDS011;11814;44.686;10.842;2023-06-26T07:54:52;12.15;;;8.32;;
23290;SDS011;11814;44.686;10.842;2023-06-26T07:57:18;12.00;;;9.25;;
23290;SDS011;11814;44.686;10.842;2023-06-26T07:59:43;11.00;;;9.30;;
23290;SDS011;11814;44.686;10.842;2023-06-26T08:02:09;14.57;;;9.35;;
23290;SDS011;11814;44.686;10.842;2023-06-26T08:04:34;12.65;;;8.68;;
23290;SDS011;11814;44.686;10.842;2023-06-26T08:07:00;10.30;;;8.20;;
23290;SDS011;11814;44.686;10.842;2023-06-26T08:09:27;11.00;;;9.05;;
23290;SDS011;11814;44.686;10.842;2023-06-26T08:11:54;15.27;;;9.55;;
23290;SDS011;11814;44.686;10.842;2023-06-26T08:14:20;15.30;;;10.45;;
23290;SDS011;11814;44.686;10.842;2023-06-26T08:16:46;13.48;;;9.82;;
23290;SDS011;11814;44.686;10.842;2023-06-26T08:19:12;17.13;;;9.77;;
23290;SDS011;11814;44.686;10.842;2023-06-26T08:21:42;14.68;;;10.20;;
23290;SDS011;11814;44.686;10.842;2023-06-26T08:24:08;15.40;;;10.30;;
23290;SDS011;11814;44.686;10.842;2023-06-26T08:26:34;13.20;;;10.05;;
23290;SDS011;11814;44.686;10.842;2023-06-26T08:29:00;15.75;;;10.43;;
23290;SDS011;11814;44.686;10.842;2023-06-26T08:31:32;11.35;;;8.48;;
23290;SDS011;11814;44.686;10.842;2023-06-26T08:33:59;11.68;;;9.18;;
23290;SDS011;11814;44.686;10.842;2023-06-26T08:36:25;15.90;;;9.80;;
23290;SDS011;11814;44.686;10.842;2023-06-26T08:38:51;13.45;;;10.00;;
23290;SDS011;11814;44.686;10.842;2023-06-26T08:41:16;12.07;;;9.95;;
23290;SDS011;11814;44.686;10.842;2023-06-26T08:43:42;16.98;;;10.05;;
23290;SDS011;11814;44.686;10.842;2023-06-26T08:46:07;10.15;;;8.93;;
23290;SDS011;11814;44.686;10.842;2023-06-26T08:48:34;13.68;;;8.18;;
23290;SDS011;11814;44.686;10.842;2023-06-26T08:51:09;11.40;;;8.05;;
23290;SDS011;11814;44.686;10.842;2023-06-26T08:56:15;11.02;;;8.20;;
23290;SDS011;11814;44.686;10.842;2023-06-26T08:58:44;13.15;;;7.55;;
23290;SDS011;11814;44.686;10.842;2023-06-26T09:01:10;13.20;;;7.60;;
23290;SDS011;11814;44.686;10.842;2023-06-26T09:03:37;12.63;;;9.02;;
23290;SDS011;11814;44.686;10.842;2023-06-26T09:06:03;15.50;;;9.27;;
23290;SDS011;11814;44.686;10.842;2023-06-26T09:08:29;14.88;;;7.65;;
23290;SDS011;11814;44.686;10.842;2023-06-26T09:10:54;10.35;;;8.45;;
23290;SDS011;11814;44.686;10.842;2023-06-26T09:13:20;11.15;;;8.52;;
23290;SDS011;11814;44.686;10.842;2023-06-26T09:15:46;15.82;;;9.10;;
23290;SDS011;11814;44.686;10.842;2023-06-26T09:18:12;14.65;;;8.07;;
23290;SDS011;11814;44.686;10.842;2023-06-26T09:20:41;11.13;;;7.32;;
23290;SDS011;11814;44.686;10.842;2023-06-26T09:23:07;13.68;;;7.45;;
23290;SDS011;11814;44.686;10.842;2023-06-26T09:25:34;11.05;;;5.63;;
23290;SDS011;11814;44.686;10.842;2023-06-26T09:28:04;8.25;;;5.50;;
23290;SDS011;11814;44.686;10.842;2023-06-26T09:30:31;9.18;;;5.80;;
23290;SDS011;11814;44.686;10.842;2023-06-26T09:32:57;9.10;;;5.40;;
23290;SDS011;11814;44.686;10.842;2023-06-26T09:35:37;8.52;;;5.53;;
23290;SDS011;11814;44.686;10.842;2023-06-26T09:38:03;12.18;;;6.30;;
23290;SDS011;11814;44.686;10.842;2023-06-26T09:40:29;7.82;;;5.97;;
23290;SDS011;11814;44.686;10.842;2023-06-26T09:43:01;10.02;;;5.32;;
23290;SDS011;11814;44.686;10.842;2023-06-26T09:45:28;10.30;;;6.18;;
23290;SDS011;11814;44.686;10.842;2023-06-26T09:47:58;6.68;;;5.47;;
23290;SDS011;11814;44.686;10.842;2023-06-26T09:50:33;6.45;;;5.57;;
23290;SDS011;11814;44.686;10.842;2023-06-26T09:53:06;9.23;;;5.18;;
23290;SDS011;11814;44.686;10.842;2023-06-26T09:55:34;8.57;;;6.10;;
23290;SDS011;11814;44.686;10.842;2023-06-26T09:58:01;8.75;;;5.43;;
23290;SDS011;11814;44.686;10.842;2023-06-26T10:00:28;11.93;;;5.72;;
23290;SDS011;11814;44.686;10.842;2023-06-26T10:02:55;7.18;;;5.90;;
23290;SDS011;11814;44.686;10.842;2023-06-26T10:05:20;9.90;;;6.15;;
23290;SDS011;11814;44.686;10.842;2023-06-26T10:07:46;10.93;;;5.90;;
23290;SDS011;11814;44.686;10.842;2023-06-26T10:10:13;6.25;;;4.80;;
23290;SDS011;11814;44.686;10.842;2023-06-26T10:12:41;11.93;;;6.50;;
23290;SDS011;11814;44.686;10.842;2023-06-26T10:15:08;7.05;;;5.28;;
23290;SDS011;11814;44.686;10.842;2023-06-26T10:17:37;8.02;;;5.57;;
23290;SDS011;11814;44.686;10.842;2023-06-26T10:20:06;7.90;;;5.40;;
23290;SDS011;11814;44.686;10.842;2023-06-26T10:22:36;9.27;;;5.78;;
23290;SDS011;11814;44.686;10.842;2023-06-26T10:25:09;7.60;;;5.05;;
23290;SDS011;11814;44.686;10.842;2023-06-26T10:27:38;7.10;;;5.38;;
23290;SDS011;11814;44.686;10.842;2023-06-26T10:30:09;6.38;;;5.38;;
23290;SDS011;11814;44.686;10.842;2023-06-26T10:32:38;8.85;;;4.70;;
23290;SDS011;11814;44.686;10.842;2023-06-26T10:35:05;9.75;;;4.90;;
23290;SDS011;11814;44.686;10.842;2023-06-26T10:37:41;6.88;;;4.95;;
23290;SDS011;11814;44.686;10.842;2023-06-26T10:40:11;7.55;;;5.18;;
23290;SDS011;11814;44.686;10.842;2023-06-26T10:42:38;8.68;;;5.10;;
23290;SDS011;11814;44.686;10.842;2023-06-26T10:47:41;7.25;;;4.47;;
23290;SDS011;11814;44.686;10.842;2023-06-26T10:55:50;7.30;;;4.63;;
23290;SDS011;11814;44.686;10.842;2023-06-26T10:58:28;6.15;;;4.68;;
23290;SDS011;11814;44.686;10.842;2023-06-26T11:03:55;7.05;;;5.10;;
23290;SDS011;11814;44.686;10.842;2023-06-26T11:06:28;5.55;;;4.55;;
23290;SDS011;11814;44.686;10.842;2023-06-26T11:08:59;6.38;;;4.43;;
23290;SDS011;11814;44.686;10.842;2023-06-26T11:14:16;5.60;;;4.57;;
23290;SDS011;11814;44.686;10.842;2023-06-26T11:16:45;6.10;;;4.28;;
23290;SDS011;11814;44.686;10.842;2023-06-26T11:19:12;5.30;;;4.32;;
23290;SDS011;11814;44.686;10.842;2023-06-26T11:21:39;6.97;;;4.63;;
23290;SDS011;11814;44.686;10.842;2023-06-26T11:24:08;6.93;;;4.40;;
23290;SDS011;11814;44.686;10.842;2023-06-26T11:26:44;8.95;;;4.05;;
23290;SDS011;11814;44.686;10.842;2023-06-26T11:29:10;6.75;;;4.40;;
23290;SDS011;11814;44.686;10.842;2023-06-26T11:31:37;6.85;;;4.43;;
23290;SDS011;11814;44.686;10.842;2023-06-26T11:34:04;6.97;;;4.30;;
23290;SDS011;11814;44.686;10.842;2023-06-26T11:36:38;7.63;;;4.78;;
23290;SDS011;11814;44.686;10.842;2023-06-26T11:39:07;8.90;;;4.15;;
23290;SDS011;11814;44.686;10.842;2023-06-26T11:41:34;6.43;;;4.50;;
23290;SDS011;11814;44.686;10.842;2023-06-26T11:44:01;6.55;;;4.70;;
23290;SDS011;11814;44.686;10.842;2023-06-26T11:46:28;4.72;;;4.05;;
23290;SDS011;11814;44.686;10.842;2023-06-26T11:48:55;7.82;;;4.90;;
23290;SDS011;11814;44.686;10.842;2023-06-26T11:51:20;5.97;;;3.90;;
23290;SDS011;11814;44.686;10.842;2023-06-26T11:53:46;5.43;;;4.22;;
23290;SDS011;11814;44.686;10.842;2023-06-26T11:56:16;6.55;;;4.55;;
23290;SDS011;11814;44.686;10.842;2023-06-26T11:58:56;5.35;;;3.92;;
23290;SDS011;11814;44.686;10.842;2023-06-26T12:01:22;6.65;;;4.70;;
23290;SDS011;11814;44.686;10.842;2023-06-26T12:03:49;7.50;;;3.65;;
23290;SDS011;11814;44.686;10.842;2023-06-26T12:06:15;4.38;;;3.67;;
23290;SDS011;11814;44.686;10.842;2023-06-26T12:08:41;5.90;;;4.28;;
23290;SDS011;11814;44.686;10.842;2023-06-26T12:11:08;5.97;;;4.32;;
23290;SDS011;11814;44.686;10.842;2023-06-26T12:13:34;4.75;;;4.18;;
23290;SDS011;11814;44.686;10.842;2023-06-26T12:16:00;4.97;;;4.30;;
23290;SDS011;11814;44.686;10.842;2023-06-26T12:18:25;6.63;;;4.40;;
23290;SDS011;11814;44.686;10.842;2023-06-26T12:20:58;6.45;;;4.50;;
23290;SDS011;11814;44.686;10.842;2023-06-26T12:23:23;7.00;;;4.30;;
23290;SDS011;11814;44.686;10.842;2023-06-26T12:25:49;6.07;;;4.07;;
23290;SDS011;11814;44.686;10.842;2023-06-26T12:28:17;8.70;;;4.00;;
23290;SDS011;11814;44.686;10.842;2023-06-26T12:30:47;5.70;;;4.30;;
23290;SDS011;11814;44.686;10.842;2023-06-26T12:33:32;7.22;;;4.30;;
23290;SDS011;11814;44.686;10.842;2023-06-26T12:35:58;4.68;;;3.78;;
23290;SDS011;11814;44.686;10.842;2023-06-26T12:38:23;8.05;;;4.20;;
23290;SDS011;11814;44.686;10.842;2023-06-26T12:40:58;5.50;;;4.38;;
23290;SDS011;11814;44.686;10.842;2023-06-26T12:43:25;5.70;;;4.20;;
23290;SDS011;11814;44.686;10.842;2023-06-26T12:45:55;7.80;;;4.03;;
23290;SDS011;11814;44.686;10.842;2023-06-26T12:48:21;5.97;;;4.13;;
23290;SDS011;11814;44.686;10.842;2023-06-26T12:51:07;8.65;;;4.32;;
23290;SDS011;11814;44.686;10.842;2023-06-26T12:53:37;6.93;;;4.03;;
23290;SDS011;11814;44.686;10.842;2023-06-26T12:56:05;8.07;;;4.35;;
23290;SDS011;11814;44.686;10.842;2023-06-26T12:58:34;6.10;;;4.03;;
23290;SDS011;11814;44.686;10.842;2023-06-26T13:01:02;6.93;;;3.97;;
23290;SDS011;11814;44.686;10.842;2023-06-26T13:03:30;4.75;;;4.00;;
23290;SDS011;11814;44.686;10.842;2023-06-26T13:05:56;7.05;;;3.90;;
23290;SDS011;11814;44.686;10.842;2023-06-26T13:08:22;7.78;;;4.18;;
23290;SDS011;11814;44.686;10.842;2023-06-26T13:10:47;6.95;;;4.22;;
23290;SDS011;11814;44.686;10.842;2023-06-26T13:13:13;5.13;;;4.20;;
23290;SDS011;11814;44.686;10.842;2023-06-26T13:15:39;7.32;;;4.20;;
23290;SDS011;11814;44.686;10.842;2023-06-26T13:18:04;9.82;;;4.10;;
23290;SDS011;11814;44.686;10.842;2023-06-26T13:20:30;9.20;;;4.05;;
23290;SDS011;11814;44.686;10.842;2023-06-26T13:22:56;8.77;;;4.25;;
23290;SDS011;11814;44.686;10.842;2023-06-26T13:25:22;4.45;;;3.50;;
23290;SDS011;11814;44.686;10.842;2023-06-26T13:27:48;8.20;;;4.22;;
23290;SDS011;11814;44.686;10.842;2023-06-26T13:30:14;8.27;;;4.20;;
23290;SDS011;11814;44.686;10.842;2023-06-26T13:32:41;11.48;;;4.53;;
23290;SDS011;11814;44.686;10.842;2023-06-26T13:35:07;4.43;;;3.90;;
23290;SDS011;11814;44.686;10.842;2023-06-26T13:37:34;5.28;;;3.92;;
23290;SDS011;11814;44.686;10.842;2023-06-26T13:40:01;8.75;;;4.28;;
23290;SDS011;11814;44.686;10.842;2023-06-26T13:42:28;6.75;;;4.00;;
23290;SDS011;11814;44.686;10.842;2023-06-26T13:44:54;10.10;;;4.40;;
23290;SDS011;11814;44.686;10.842;2023-06-26T13:47:19;8.40;;;4.03;;
23290;SDS011;11814;44.686;10.842;2023-06-26T13:49:45;6.72;;;4.03;;
23290;SDS011;11814;44.686;10.842;2023-06-26T13:52:10;7.50;;;4.15;;
23290;SDS011;11814;44.686;10.842;2023-06-26T13:54:36;8.98;;;4.47;;
23290;SDS011;11814;44.686;10.842;2023-06-26T13:57:04;8.75;;;4.15;;
23290;SDS011;11814;44.686;10.842;2023-06-26T13:59:31;8.00;;;4.28;;
23290;SDS011;11814;44.686;10.842;2023-06-26T14:01:57;9.15;;;4.50;;
23290;SDS011;11814;44.686;10.842;2023-06-26T14:04:24;5.50;;;3.92;;
23290;SDS011;11814;44.686;10.842;2023-06-26T14:06:50;6.47;;;3.97;;
23290;SDS011;11814;44.686;10.842;2023-06-26T14:09:16;7.43;;;4.13;;
23290;SDS011;11814;44.686;10.842;2023-06-26T14:11:41;6.18;;;4.30;;
23290;SDS011;11814;44.686;10.842;2023-06-26T14:14:08;6.90;;;4.25;;
23290;SDS011;11814;44.686;10.842;2023-06-26T14:16:34;7.20;;;3.90;;
23290;SDS011;11814;44.686;10.842;2023-06-26T14:18:59;6.82;;;4.43;;
23290;SDS011;11814;44.686;10.842;2023-06-26T14:21:25;7.10;;;4.50;;
23290;SDS011;11814;44.686;10.842;2023-06-26T14:23:52;11.32;;;4.68;;
23290;SDS011;11814;44.686;10.842;2023-06-26T14:26:18;8.55;;;4.47;;
23290;SDS011;11814;44.686;10.842;2023-06-26T14:28:44;5.60;;;4.35;;
23290;SDS011;11814;44.686;10.842;2023-06-26T14:31:10;7.90;;;4.00;;
23290;SDS011;11814;44.686;10.842;2023-06-26T14:33:35;5.10;;;4.40;;
23290;SDS011;11814;44.686;10.842;2023-06-26T14:36:01;7.60;;;4.68;;
23290;SDS011;11814;44.686;10.842;2023-06-26T14:38:27;10.50;;;4.63;;
23290;SDS011;11814;44.686;10.842;2023-06-26T14:40:53;6.97;;;4.50;;